Fort Richardson, AK

9:32 AM AKST on February 14, 2016 (GMT -0900)
East Anchorage | | Change Station
CLOSE
Current Station
Personal Weather Station
Location: Anchorage, AK
Elevation: 260 ft
Nearby Weather Stations

Elev 260 ft 61.22 °N, 149.72 °W | Updated 22 seconds ago

Scattered Clouds
Scattered Clouds
24.4 °F
Feels Like 24 °F
N
0.0
Wind Variable Wind from South
Gusts 1.7 mph

Today
High -- | Low -- °F
--% Chance of Precip.
Yesterday
High -- | Low -- °F
Precip. -- in
Pressure 29.31 in
Visibility 10.0 miles
Clouds Scattered Clouds 8000 ft
Windchill 24 °F
Dew Point 24 °F
Humidity 99%
Rainfall 0.00 in
Snow Depth Not available.
8:44 AM 5:41 PM
Waxing Crescent, 44% visible
METAR PAFR 141813Z AUTO 00000KT 10SM SCT080 M03/M04 A2931 RMK AO1
Pressure 29.31 in
Visibility 10.0 miles
Clouds Scattered Clouds 8000 ft
Windchill 24 °F
Dew Point 24 °F
Humidity 99%
Rainfall 0.00 in
Snow Depth Not available.
8:44 AM 5:41 PM
Waxing Crescent, 44% visible
METAR PAFR 141813Z AUTO 00000KT 10SM SCT080 M03/M04 A2931 RMK AO1

10-Day Weather Forecast

Almanac

Astronomy

Feb. 14, 2016 Rise Set
Actual Time
Civil Twilight
Nautical Twilight
Astronomical Twilight
Moon
Length of Visible Light
Length of Day
Tomorrow will be .
, % of the Moon is Illuminated

Today's Extremes

State Highs State Lows

Community

WunderPhotos

Upload Photos

1,892,868 photos uploaded!

WunderBlog® & News

Nearby

Air Quality

  Air Quality AQ Index Pollutant
Not available.

Snow Depth

Station Depth Elevation

Earthquake Activity

City Distance Mag. Time & Date
Minimum magnitude displayed is 2.5.

Coastal Water Temperatures

Place Temperature

Stations

Nearby Weather Stations

Station Location Temp. Windchill Dew Point Humidity Wind Precip. Elev Updated Type
                   

Watches & Warnings

There are currently no watches in effect.